sensor_id;sensor_type;location;lat;lon;timestamp;P1;durP1;ratioP1;P2;durP2;ratioP2
76701;SDS011;70097;44.536;0.146;2023-08-12T00:03:22;8.07;;;2.47;;
76701;SDS011;70097;44.536;0.146;2023-08-12T00:08:55;7.40;;;2.20;;
76701;SDS011;70097;44.536;0.146;2023-08-12T00:14:29;7.90;;;2.60;;
76701;SDS011;70097;44.536;0.146;2023-08-12T00:20:03;14.53;;;4.17;;
76701;SDS011;70097;44.536;0.146;2023-08-12T00:25:34;7.43;;;2.60;;
76701;SDS011;70097;44.536;0.146;2023-08-12T00:31:06;8.23;;;2.90;;
76701;SDS011;70097;44.536;0.146;2023-08-12T00:36:40;15.47;;;3.73;;
76701;SDS011;70097;44.536;0.146;2023-08-12T00:42:13;6.27;;;2.60;;
76701;SDS011;70097;44.536;0.146;2023-08-12T00:47:46;8.20;;;3.13;;
76701;SDS011;70097;44.536;0.146;2023-08-12T00:53:19;7.10;;;2.50;;
76701;SDS011;70097;44.536;0.146;2023-08-12T00:58:52;9.90;;;2.67;;
76701;SDS011;70097;44.536;0.146;2023-08-12T01:04:26;10.20;;;2.40;;
76701;SDS011;70097;44.536;0.146;2023-08-12T01:09:58;9.03;;;2.70;;
76701;SDS011;70097;44.536;0.146;2023-08-12T01:15:30;9.47;;;3.13;;
76701;SDS011;70097;44.536;0.146;2023-08-12T01:21:03;12.30;;;2.93;;
76701;SDS011;70097;44.536;0.146;2023-08-12T01:26:36;9.33;;;2.70;;
76701;SDS011;70097;44.536;0.146;2023-08-12T01:32:11;8.17;;;2.50;;
76701;SDS011;70097;44.536;0.146;2023-08-12T01:37:40;12.30;;;3.00;;
76701;SDS011;70097;44.536;0.146;2023-08-12T01:43:14;11.87;;;2.90;;
76701;SDS011;70097;44.536;0.146;2023-08-12T01:48:47;9.20;;;3.00;;
76701;SDS011;70097;44.536;0.146;2023-08-12T01:54:21;12.90;;;3.97;;
76701;SDS011;70097;44.536;0.146;2023-08-12T01:59:54;7.53;;;2.83;;
76701;SDS011;70097;44.536;0.146;2023-08-12T02:05:26;8.10;;;3.60;;
76701;SDS011;70097;44.536;0.146;2023-08-12T02:10:59;11.57;;;3.27;;
76701;SDS011;70097;44.536;0.146;2023-08-12T02:16:33;13.30;;;3.00;;
76701;SDS011;70097;44.536;0.146;2023-08-12T02:22:05;8.77;;;3.40;;
76701;SDS011;70097;44.536;0.146;2023-08-12T02:27:38;13.57;;;4.03;;
76701;SDS011;70097;44.536;0.146;2023-08-12T02:33:10;8.00;;;3.03;;
76701;SDS011;70097;44.536;0.146;2023-08-12T02:38:42;10.23;;;3.47;;
76701;SDS011;70097;44.536;0.146;2023-08-12T02:44:14;6.43;;;2.87;;
76701;SDS011;70097;44.536;0.146;2023-08-12T02:49:48;10.30;;;3.20;;
76701;SDS011;70097;44.536;0.146;2023-08-12T02:55:21;9.77;;;3.67;;
76701;SDS011;70097;44.536;0.146;2023-08-12T03:00:54;8.03;;;3.17;;
76701;SDS011;70097;44.536;0.146;2023-08-12T03:06:27;8.00;;;3.07;;
76701;SDS011;70097;44.536;0.146;2023-08-12T03:12:01;14.13;;;2.67;;
76701;SDS011;70097;44.536;0.146;2023-08-12T03:17:33;11.90;;;3.73;;
76701;SDS011;70097;44.536;0.146;2023-08-12T03:23:06;8.30;;;2.93;;
76701;SDS011;70097;44.536;0.146;2023-08-12T03:28:39;8.50;;;2.90;;
76701;SDS011;70097;44.536;0.146;2023-08-12T03:34:12;7.67;;;3.43;;
76701;SDS011;70097;44.536;0.146;2023-08-12T03:39:45;11.67;;;3.50;;
76701;SDS011;70097;44.536;0.146;2023-08-12T03:45:19;12.23;;;3.70;;
76701;SDS011;70097;44.536;0.146;2023-08-12T03:50:52;13.73;;;3.33;;
76701;SDS011;70097;44.536;0.146;2023-08-12T03:56:25;11.57;;;3.63;;
76701;SDS011;70097;44.536;0.146;2023-08-12T04:01:57;9.07;;;3.40;;
76701;SDS011;70097;44.536;0.146;2023-08-12T04:07:31;7.80;;;3.00;;
76701;SDS011;70097;44.536;0.146;2023-08-12T04:13:03;9.37;;;2.93;;
76701;SDS011;70097;44.536;0.146;2023-08-12T04:18:37;10.80;;;3.87;;
76701;SDS011;70097;44.536;0.146;2023-08-12T04:24:11;11.03;;;3.90;;
76701;SDS011;70097;44.536;0.146;2023-08-12T04:29:45;8.83;;;2.80;;
76701;SDS011;70097;44.536;0.146;2023-08-12T04:35:18;14.60;;;3.00;;
76701;SDS011;70097;44.536;0.146;2023-08-12T04:40:52;11.33;;;3.13;;
76701;SDS011;70097;44.536;0.146;2023-08-12T04:46:24;9.63;;;3.90;;
76701;SDS011;70097;44.536;0.146;2023-08-12T04:51:56;10.53;;;3.27;;
76701;SDS011;70097;44.536;0.146;2023-08-12T04:57:29;8.13;;;3.30;;
76701;SDS011;70097;44.536;0.146;2023-08-12T05:03:03;14.53;;;5.37;;
76701;SDS011;70097;44.536;0.146;2023-08-12T05:08:35;12.90;;;4.10;;
76701;SDS011;70097;44.536;0.146;2023-08-12T05:14:07;10.93;;;4.40;;
76701;SDS011;70097;44.536;0.146;2023-08-12T05:19:40;11.90;;;3.70;;
76701;SDS011;70097;44.536;0.146;2023-08-12T05:25:12;12.43;;;4.67;;
76701;SDS011;70097;44.536;0.146;2023-08-12T05:30:46;12.33;;;4.23;;
76701;SDS011;70097;44.536;0.146;2023-08-12T05:36:19;14.07;;;4.30;;
76701;SDS011;70097;44.536;0.146;2023-08-12T05:41:51;13.37;;;4.73;;
76701;SDS011;70097;44.536;0.146;2023-08-12T05:47:23;14.13;;;5.00;;
76701;SDS011;70097;44.536;0.146;2023-08-12T05:52:56;12.27;;;4.30;;
76701;SDS011;70097;44.536;0.146;2023-08-12T05:58:29;15.20;;;4.47;;
76701;SDS011;70097;44.536;0.146;2023-08-12T06:04:02;15.03;;;4.87;;
76701;SDS011;70097;44.536;0.146;2023-08-12T06:09:35;16.10;;;5.80;;
76701;SDS011;70097;44.536;0.146;2023-08-12T06:15:09;11.03;;;4.63;;
76701;SDS011;70097;44.536;0.146;2023-08-12T06:20:41;11.83;;;4.63;;
76701;SDS011;70097;44.536;0.146;2023-08-12T06:26:13;14.77;;;4.60;;
76701;SDS011;70097;44.536;0.146;2023-08-12T06:31:46;17.03;;;5.93;;
76701;SDS011;70097;44.536;0.146;2023-08-12T06:37:19;12.67;;;5.80;;
76701;SDS011;70097;44.536;0.146;2023-08-12T06:42:53;12.60;;;5.67;;
76701;SDS011;70097;44.536;0.146;2023-08-12T06:48:25;12.13;;;5.10;;
76701;SDS011;70097;44.536;0.146;2023-08-12T06:53:57;20.47;;;7.20;;
76701;SDS011;70097;44.536;0.146;2023-08-12T06:59:30;13.07;;;4.83;;
76701;SDS011;70097;44.536;0.146;2023-08-12T07:05:03;15.43;;;6.07;;
76701;SDS011;70097;44.536;0.146;2023-08-12T07:10:37;12.13;;;5.70;;
76701;SDS011;70097;44.536;0.146;2023-08-12T07:16:08;23.43;;;6.90;;
76701;SDS011;70097;44.536;0.146;2023-08-12T07:21:42;15.33;;;5.60;;
76701;SDS011;70097;44.536;0.146;2023-08-12T07:27:15;8.47;;;4.73;;
76701;SDS011;70097;44.536;0.146;2023-08-12T07:32:47;10.30;;;5.07;;
76701;SDS011;70097;44.536;0.146;2023-08-12T07:38:19;13.20;;;6.10;;
76701;SDS011;70097;44.536;0.146;2023-08-12T07:43:51;11.43;;;4.80;;
76701;SDS011;70097;44.536;0.146;2023-08-12T07:49:23;11.60;;;4.00;;
76701;SDS011;70097;44.536;0.146;2023-08-12T07:54:56;15.00;;;4.07;;
76701;SDS011;70097;44.536;0.146;2023-08-12T08:00:30;11.83;;;4.00;;
76701;SDS011;70097;44.536;0.146;2023-08-12T08:06:04;9.23;;;3.20;;
76701;SDS011;70097;44.536;0.146;2023-08-12T08:11:36;7.13;;;3.43;;
76701;SDS011;70097;44.536;0.146;2023-08-12T08:17:09;11.27;;;3.53;;
76701;SDS011;70097;44.536;0.146;2023-08-12T08:22:42;14.83;;;4.87;;
76701;SDS011;70097;44.536;0.146;2023-08-12T08:28:16;10.07;;;3.17;;
76701;SDS011;70097;44.536;0.146;2023-08-12T08:33:48;8.00;;;2.70;;
76701;SDS011;70097;44.536;0.146;2023-08-12T08:39:22;10.27;;;3.33;;
76701;SDS011;70097;44.536;0.146;2023-08-12T08:44:54;7.37;;;2.10;;
76701;SDS011;70097;44.536;0.146;2023-08-12T08:50:28;5.87;;;2.20;;
76701;SDS011;70097;44.536;0.146;2023-08-12T08:56:00;8.40;;;2.53;;
76701;SDS011;70097;44.536;0.146;2023-08-12T09:01:33;6.87;;;3.10;;
76701;SDS011;70097;44.536;0.146;2023-08-12T09:07:05;8.97;;;1.93;;
76701;SDS011;70097;44.536;0.146;2023-08-12T09:12:38;5.97;;;2.07;;
76701;SDS011;70097;44.536;0.146;2023-08-12T09:18:11;5.37;;;1.70;;
76701;SDS011;70097;44.536;0.146;2023-08-12T09:23:42;4.83;;;1.67;;
76701;SDS011;70097;44.536;0.146;2023-08-12T09:29:15;6.07;;;1.80;;
76701;SDS011;70097;44.536;0.146;2023-08-12T09:34:47;5.83;;;1.80;;
76701;SDS011;70097;44.536;0.146;2023-08-12T09:40:22;7.87;;;3.00;;
76701;SDS011;70097;44.536;0.146;2023-08-12T09:45:55;4.47;;;1.57;;
76701;SDS011;70097;44.536;0.146;2023-08-12T09:51:26;6.67;;;1.83;;
76701;SDS011;70097;44.536;0.146;2023-08-12T09:57:01;3.97;;;1.27;;
76701;SDS011;70097;44.536;0.146;2023-08-12T10:02:32;5.80;;;1.27;;
76701;SDS011;70097;44.536;0.146;2023-08-12T10:08:07;5.33;;;1.73;;
76701;SDS011;70097;44.536;0.146;2023-08-12T10:13:39;4.13;;;1.40;;
76701;SDS011;70097;44.536;0.146;2023-08-12T10:19:11;4.07;;;1.67;;
76701;SDS011;70097;44.536;0.146;2023-08-12T10:24:44;5.00;;;1.77;;
76701;SDS011;70097;44.536;0.146;2023-08-12T10:30:20;4.63;;;1.20;;
76701;SDS011;70097;44.536;0.146;2023-08-12T10:35:51;3.53;;;1.10;;
76701;SDS011;70097;44.536;0.146;2023-08-12T10:41:24;4.67;;;1.27;;
76701;SDS011;70097;44.536;0.146;2023-08-12T10:46:56;5.63;;;1.30;;
76701;SDS011;70097;44.536;0.146;2023-08-12T10:52:29;2.70;;;1.00;;
76701;SDS011;70097;44.536;0.146;2023-08-12T10:58:01;2.07;;;1.10;;
76701;SDS011;70097;44.536;0.146;2023-08-12T11:03:34;6.83;;;1.10;;
76701;SDS011;70097;44.536;0.146;2023-08-12T11:09:06;4.50;;;2.07;;
76701;SDS011;70097;44.536;0.146;2023-08-12T11:14:46;5.33;;;1.47;;
76701;SDS011;70097;44.536;0.146;2023-08-12T11:20:13;5.63;;;1.57;;
76701;SDS011;70097;44.536;0.146;2023-08-12T11:25:45;3.10;;;1.33;;
76701;SDS011;70097;44.536;0.146;2023-08-12T11:31:18;4.80;;;1.40;;
76701;SDS011;70097;44.536;0.146;2023-08-12T11:36:50;6.23;;;1.57;;
76701;SDS011;70097;44.536;0.146;2023-08-12T11:42:23;4.00;;;1.30;;
76701;SDS011;70097;44.536;0.146;2023-08-12T11:47:56;5.13;;;1.43;;
76701;SDS011;70097;44.536;0.146;2023-08-12T11:53:28;4.83;;;1.60;;
76701;SDS011;70097;44.536;0.146;2023-08-12T11:59:02;3.97;;;1.87;;
76701;SDS011;70097;44.536;0.146;2023-08-12T12:04:34;4.43;;;2.00;;
76701;SDS011;70097;44.536;0.146;2023-08-12T12:10:07;3.77;;;1.40;;
76701;SDS011;70097;44.536;0.146;2023-08-12T12:15:41;5.20;;;1.63;;
76701;SDS011;70097;44.536;0.146;2023-08-12T12:21:19;2.50;;;1.30;;
76701;SDS011;70097;44.536;0.146;2023-08-12T12:26:45;4.33;;;2.07;;
76701;SDS011;70097;44.536;0.146;2023-08-12T12:32:18;4.63;;;1.43;;
76701;SDS011;70097;44.536;0.146;2023-08-12T12:37:51;4.93;;;1.10;;
76701;SDS011;70097;44.536;0.146;2023-08-12T12:43:24;4.23;;;1.33;;
76701;SDS011;70097;44.536;0.146;2023-08-12T12:48:56;2.50;;;0.90;;
76701;SDS011;70097;44.536;0.146;2023-08-12T12:54:29;4.10;;;1.20;;
76701;SDS011;70097;44.536;0.146;2023-08-12T13:00:02;2.97;;;0.80;;
76701;SDS011;70097;44.536;0.146;2023-08-12T13:05:35;3.07;;;0.90;;
76701;SDS011;70097;44.536;0.146;2023-08-12T13:11:08;3.57;;;1.30;;
76701;SDS011;70097;44.536;0.146;2023-08-12T13:16:40;4.63;;;1.53;;
76701;SDS011;70097;44.536;0.146;2023-08-12T13:22:13;4.10;;;1.20;;
76701;SDS011;70097;44.536;0.146;2023-08-12T13:27:46;3.87;;;1.70;;
76701;SDS011;70097;44.536;0.146;2023-08-12T13:33:19;2.77;;;1.17;;
76701;SDS011;70097;44.536;0.146;2023-08-12T13:38:51;3.50;;;1.10;;
76701;SDS011;70097;44.536;0.146;2023-08-12T13:44:23;4.87;;;1.33;;
76701;SDS011;70097;44.536;0.146;2023-08-12T13:49:57;6.40;;;1.37;;
76701;SDS011;70097;44.536;0.146;2023-08-12T13:55:30;5.40;;;2.10;;
76701;SDS011;70097;44.536;0.146;2023-08-12T14:01:02;9.50;;;1.40;;
76701;SDS011;70097;44.536;0.146;2023-08-12T14:06:35;7.30;;;2.23;;
76701;SDS011;70097;44.536;0.146;2023-08-12T14:12:08;4.87;;;1.47;;
76701;SDS011;70097;44.536;0.146;2023-08-12T14:17:41;4.40;;;1.50;;
76701;SDS011;70097;44.536;0.146;2023-08-12T14:23:13;5.03;;;1.83;;
76701;SDS011;70097;44.536;0.146;2023-08-12T14:28:46;5.87;;;1.60;;
76701;SDS011;70097;44.536;0.146;2023-08-12T14:34:19;3.27;;;1.23;;
76701;SDS011;70097;44.536;0.146;2023-08-12T14:39:52;3.40;;;1.07;;
76701;SDS011;70097;44.536;0.146;2023-08-12T14:45:25;5.37;;;1.50;;
76701;SDS011;70097;44.536;0.146;2023-08-12T14:50:59;5.80;;;1.30;;
76701;SDS011;70097;44.536;0.146;2023-08-12T14:56:32;5.27;;;1.60;;
76701;SDS011;70097;44.536;0.146;2023-08-12T15:02:05;4.20;;;1.20;;
76701;SDS011;70097;44.536;0.146;2023-08-12T15:07:38;2.70;;;1.00;;
76701;SDS011;70097;44.536;0.146;2023-08-12T15:13:11;1.77;;;1.20;;
76701;SDS011;70097;44.536;0.146;2023-08-12T15:18:44;4.07;;;1.10;;
76701;SDS011;70097;44.536;0.146;2023-08-12T15:24:17;2.37;;;1.10;;
76701;SDS011;70097;44.536;0.146;2023-08-12T15:29:51;3.90;;;1.20;;
76701;SDS011;70097;44.536;0.146;2023-08-12T15:35:24;3.27;;;1.23;;
76701;SDS011;70097;44.536;0.146;2023-08-12T15:40:57;5.70;;;1.77;;
76701;SDS011;70097;44.536;0.146;2023-08-12T15:46:28;4.37;;;1.50;;
76701;SDS011;70097;44.536;0.146;2023-08-12T15:52:02;3.20;;;1.50;;
76701;SDS011;70097;44.536;0.146;2023-08-12T15:57:35;4.03;;;1.20;;
76701;SDS011;70097;44.536;0.146;2023-08-12T16:03:08;3.27;;;1.40;;
76701;SDS011;70097;44.536;0.146;2023-08-12T16:08:40;3.80;;;1.70;;
76701;SDS011;70097;44.536;0.146;2023-08-12T16:14:13;4.00;;;1.40;;
76701;SDS011;70097;44.536;0.146;2023-08-12T16:19:45;5.07;;;1.63;;
76701;SDS011;70097;44.536;0.146;2023-08-12T16:25:17;5.20;;;1.80;;
76701;SDS011;70097;44.536;0.146;2023-08-12T16:30:50;8.40;;;2.37;;
76701;SDS011;70097;44.536;0.146;2023-08-12T16:36:22;4.47;;;1.90;;
76701;SDS011;70097;44.536;0.146;2023-08-12T16:41:56;4.33;;;2.03;;
76701;SDS011;70097;44.536;0.146;2023-08-12T16:47:29;6.30;;;1.93;;
76701;SDS011;70097;44.536;0.146;2023-08-12T16:53:01;7.53;;;2.07;;
76701;SDS011;70097;44.536;0.146;2023-08-12T16:58:33;7.10;;;3.17;;
76701;SDS011;70097;44.536;0.146;2023-08-12T17:04:07;6.10;;;2.33;;
76701;SDS011;70097;44.536;0.146;2023-08-12T17:09:40;6.87;;;1.73;;
76701;SDS011;70097;44.536;0.146;2023-08-12T17:15:12;5.50;;;1.83;;
76701;SDS011;70097;44.536;0.146;2023-08-12T17:20:45;6.87;;;1.63;;
76701;SDS011;70097;44.536;0.146;2023-08-12T17:26:17;4.43;;;1.57;;
76701;SDS011;70097;44.536;0.146;2023-08-12T17:31:50;4.23;;;1.50;;
76701;SDS011;70097;44.536;0.146;2023-08-12T17:37:23;5.17;;;1.50;;
76701;SDS011;70097;44.536;0.146;2023-08-12T17:42:56;4.20;;;1.57;;
76701;SDS011;70097;44.536;0.146;2023-08-12T17:48:28;4.10;;;1.93;;
76701;SDS011;70097;44.536;0.146;2023-08-12T17:54:00;3.57;;;1.50;;
76701;SDS011;70097;44.536;0.146;2023-08-12T17:59:33;4.47;;;1.60;;
76701;SDS011;70097;44.536;0.146;2023-08-12T18:05:05;3.67;;;1.43;;
76701;SDS011;70097;44.536;0.146;2023-08-12T18:10:39;5.03;;;1.70;;
76701;SDS011;70097;44.536;0.146;2023-08-12T18:16:12;3.77;;;1.93;;
76701;SDS011;70097;44.536;0.146;2023-08-12T18:21:45;2.23;;;1.20;;
76701;SDS011;70097;44.536;0.146;2023-08-12T18:27:19;3.13;;;1.17;;
76701;SDS011;70097;44.536;0.146;2023-08-12T18:32:52;3.57;;;1.00;;
76701;SDS011;70097;44.536;0.146;2023-08-12T18:38:24;2.10;;;0.90;;
76701;SDS011;70097;44.536;0.146;2023-08-12T18:43:57;3.43;;;1.10;;
76701;SDS011;70097;44.536;0.146;2023-08-12T18:49:30;1.90;;;0.70;;
76701;SDS011;70097;44.536;0.146;2023-08-12T18:55:04;1.60;;;0.80;;
76701;SDS011;70097;44.536;0.146;2023-08-12T19:00:36;1.80;;;0.60;;
76701;SDS011;70097;44.536;0.146;2023-08-12T19:06:09;1.90;;;0.60;;
76701;SDS011;70097;44.536;0.146;2023-08-12T19:11:41;1.27;;;0.60;;
76701;SDS011;70097;44.536;0.146;2023-08-12T19:17:15;2.23;;;0.90;;
76701;SDS011;70097;44.536;0.146;2023-08-12T19:22:47;1.87;;;1.23;;
76701;SDS011;70097;44.536;0.146;2023-08-12T19:28:20;2.17;;;0.80;;
76701;SDS011;70097;44.536;0.146;2023-08-12T19:33:53;2.90;;;0.73;;
76701;SDS011;70097;44.536;0.146;2023-08-12T19:39:25;1.53;;;0.50;;
76701;SDS011;70097;44.536;0.146;2023-08-12T19:44:58;3.33;;;0.60;;
76701;SDS011;70097;44.536;0.146;2023-08-12T19:50:30;1.13;;;0.50;;
76701;SDS011;70097;44.536;0.146;2023-08-12T19:56:04;1.73;;;0.60;;
76701;SDS011;70097;44.536;0.146;2023-08-12T20:01:37;0.83;;;0.60;;
76701;SDS011;70097;44.536;0.146;2023-08-12T20:07:10;1.03;;;0.50;;
76701;SDS011;70097;44.536;0.146;2023-08-12T20:12:42;1.30;;;0.47;;
76701;SDS011;70097;44.536;0.146;2023-08-12T20:18:14;1.00;;;0.40;;
76701;SDS011;70097;44.536;0.146;2023-08-12T20:23:47;1.80;;;0.60;;
76701;SDS011;70097;44.536;0.146;2023-08-12T20:29:20;2.13;;;0.60;;
76701;SDS011;70097;44.536;0.146;2023-08-12T20:34:54;0.53;;;0.33;;
76701;SDS011;70097;44.536;0.146;2023-08-12T20:40:27;1.07;;;0.47;;
76701;SDS011;70097;44.536;0.146;2023-08-12T20:46:00;1.00;;;0.60;;
76701;SDS011;70097;44.536;0.146;2023-08-12T20:51:33;1.13;;;0.50;;
76701;SDS011;70097;44.536;0.146;2023-08-12T20:57:06;0.97;;;0.40;;
76701;SDS011;70097;44.536;0.146;2023-08-12T21:02:41;2.77;;;0.80;;
76701;SDS011;70097;44.536;0.146;2023-08-12T21:08:11;1.97;;;1.10;;
76701;SDS011;70097;44.536;0.146;2023-08-12T21:13:43;2.17;;;0.50;;
76701;SDS011;70097;44.536;0.146;2023-08-12T21:19:16;2.53;;;0.87;;
76701;SDS011;70097;44.536;0.146;2023-08-12T21:24:50;2.50;;;0.80;;
76701;SDS011;70097;44.536;0.146;2023-08-12T21:30:22;2.30;;;1.33;;
76701;SDS011;70097;44.536;0.146;2023-08-12T21:35:54;3.40;;;0.90;;
76701;SDS011;70097;44.536;0.146;2023-08-12T21:41:27;4.00;;;1.37;;
76701;SDS011;70097;44.536;0.146;2023-08-12T21:47:00;3.43;;;0.60;;
76701;SDS011;70097;44.536;0.146;2023-08-12T21:52:32;1.73;;;0.60;;
76701;SDS011;70097;44.536;0.146;2023-08-12T21:58:04;4.37;;;1.00;;
76701;SDS011;70097;44.536;0.146;2023-08-12T22:03:36;3.90;;;0.70;;
76701;SDS011;70097;44.536;0.146;2023-08-12T22:09:09;3.47;;;0.90;;
76701;SDS011;70097;44.536;0.146;2023-08-12T22:14:41;2.60;;;0.83;;
76701;SDS011;70097;44.536;0.146;2023-08-12T22:20:13;2.30;;;0.70;;
76701;SDS011;70097;44.536;0.146;2023-08-12T22:25:46;3.70;;;1.13;;
76701;SDS011;70097;44.536;0.146;2023-08-12T22:31:19;4.40;;;1.40;;
76701;SDS011;70097;44.536;0.146;2023-08-12T22:36:51;6.27;;;1.40;;
76701;SDS011;70097;44.536;0.146;2023-08-12T22:42:23;7.60;;;1.10;;
76701;SDS011;70097;44.536;0.146;2023-08-12T22:47:57;6.77;;;2.57;;
76701;SDS011;70097;44.536;0.146;2023-08-12T22:59:03;5.67;;;1.43;;
76701;SDS011;70097;44.536;0.146;2023-08-12T23:04:36;6.03;;;1.27;;
76701;SDS011;70097;44.536;0.146;2023-08-12T23:10:10;7.80;;;1.60;;
76701;SDS011;70097;44.536;0.146;2023-08-12T23:15:43;10.03;;;2.53;;
76701;SDS011;70097;44.536;0.146;2023-08-12T23:21:15;6.17;;;1.43;;
76701;SDS011;70097;44.536;0.146;2023-08-12T23:32:20;9.90;;;3.10;;
76701;SDS011;70097;44.536;0.146;2023-08-12T23:37:52;9.20;;;1.73;;
76701;SDS011;70097;44.536;0.146;2023-08-12T23:43:24;5.23;;;2.37;;
76701;SDS011;70097;44.536;0.146;2023-08-12T23:48:57;9.77;;;1.73;;
76701;SDS011;70097;44.536;0.146;2023-08-12T23:54:29;6.30;;;1.43;;
